KCVO - Corvallis, OR
Updated: Mon, 25-Jun-2018 9:56am PDT
Overcast
Overcast
 Wind from calm
Wind: Calm
Temperature: 64°F , 18°C
Dew Point: 52°F , 11°C
Humidity: 64%
Barometer: 30.11 inHg , 1019.6 hPa
Clouds: Overcast
Visibility: 10 miles , 16 km
Cloud details: Few Clouds 3100 ft
Overcast 4900 ft
2018/06/25 16:56 KCVO 251656Z AUTO 00000KT 10SM FEW031 OVC049 18/11 A3011 RMK AO2 SLP196 T01830106